Details From LFMN - Nice/Cote d'Azur
To LIMJ - Genova Sestri
Flight Number -
Tags decoded
Created
Modified
Stats Distance 89 nm / 165 km
Max Altitude 0 ft / 0 m
Waypoints 5
Social Downloads 0
Likes 0
Share VATSIM

Download

Looking for another format? Having issues loading an existing format? Contact us
Advertisement - Login to hide

Notes

Requested: LFMN NIZ KEPPO ABN DORAV LIMJ Unmatched points: KEPPO

Route

LFMN NIZ ABN DORAV LIMJ

ID Type Via Altitude Latitude Longitude Leg Dist Tot Dist Heading (true) Name
O LFMN APT - 0 ft / 0 m 43.65798˚ 7.21536˚ - 0 nm - Nice/Cote d'Azur
NIZ VOR - 0 ft / 0 m 43.77064˚ 7.25439˚ 6 nm 6 nm 14° / 14° NICE COTE D AZUR VOR-DME
ABN NDB - 0 ft / 0 m 44.05583˚ 8.22111˚ 45 nm 52 nm 67° / 68° ALBENGA NDB
DORAV FIX - 0 ft / 0 m 44.32639˚ 8.85222˚ 31 nm 83 nm 59° / 59° -
O LIMJ APT - 0 ft / 0 m 44.41196˚ 8.84187˚ 5 nm 88 nm 355° / 355° Genova Sestri

Altitude Profile

Advertisement - Login to hide

LFMN

Details ICAO LFMN (NCE)
Name Nice/Cote d'Azur
Region France
Timezone Unknown (UTC+0.0)
Stats Elevation 12 ft / 4 m (AMSL)
Location 43.657981° 7.215362°
Runways 2
Magnetic Variation 2.066° E

METAR

LFMN 240800Z 10008KT 9999 FEW026 SCT260 20/16 Q1018 NOSIG

Decode

TAF

TAF LFMN 240200Z 2403/2509 VRB03KT CAVOK BECMG 2407/2409 10010KT PROB30 TEMPO 2405/2407 4000 BR OVC006 BECMG 2414/2416 18010KT BECMG 2420/2422 09010KT TEMPO 2500/2509 BKN006

Decode

Departure Runways

ID Width Length Bearing (true) Bearing (mag) Surface Threshold Offset Overrun Length
04L 148 ft / 45 m 8,427 ft / 2,569 m 44.85° 42.78° Asphalt 0 ft / 0 m 131 ft / 40 m
04R 148 ft / 45 m 9,720 ft / 2,963 m 44.60° 42.53° Asphalt 0 ft / 0 m 427 ft / 130 m
22L 148 ft / 45 m 9,720 ft / 2,963 m 224.62° 222.55° Asphalt 0 ft / 0 m 525 ft / 160 m
22R 148 ft / 45 m 8,427 ft / 2,569 m 224.87° 222.80° Asphalt 0 ft / 0 m 492 ft / 150 m

LIMJ

Details ICAO LIMJ (GOA)
Name Genova Sestri
Region Italy
Timezone Unknown (UTC+0.0)
Stats Elevation 13 ft / 4 m (AMSL)
Location 44.411957° 8.841866°
Runways 1
Magnetic Variation 2.438° E

METAR

LIMJ 240750Z 18003KT 9999 BKN018 20/17 Q1018

Decode

TAF

TAF LIMJ 240500Z 2406/2506 VRB05KT 9999 SCT060

Decode

Destination Runways

ID Width Length Bearing (true) Bearing (mag) Surface Threshold Offset Overrun Length
10 148 ft / 45 m 9,574 ft / 2,918 m 105.39° 102.95° Asphalt 0 ft / 0 m 0 ft / 0 m
28 148 ft / 45 m 9,574 ft / 2,918 m 285.41° 282.97° Asphalt 538 ft / 164 m 0 ft / 0 m

Approach Navaids

Runway Type Ident Frequency Range Bearing (true) Bearing (mag) Slope Elevation
28 Localiser GSE 109.30 MHz 18 nm / 33 km 287.30° 284.86° - 9 ft / 3 m (AMSL)
28 Glidescope GSE 109.30 MHz 10 nm / 19 km 287.30° 284.86° 3.17° 26 ft / 8 m (AMSL)
28 DME GSE 109.30 MHz 18 nm / 33 km - - - 26 ft / 8 m (AMSL)

Popular Alternatives